»·PEaware :: SWA478 KDEN-KABQ

SWA478 :: KDEN-KABQ

FLIGHT INFORMATION

Flight Status: Arrived
Operator:
Southwest Airlines
More flights by this operator :: More flights under this callsign
Pilot: Anonymous 32031 (32031)
Aircraft: BOEING 737-800
(B738)
More flights by this aircraft type
Origin: KDEN Denver Intl
United States
Destination: KABQ Albuquerque Intl Sunport
United States
More flights between these airports :: More routes between these airports
Route: SUDDZ1 SUDDZ DATME SNDIA3
File this flight plan on PilotEdge
Remarks:
Altitude:
(Current/Filed)
36,000ft
Speed:
(Current/Filed)
467kts
Departed: 26-Oct-20 06:23 PM
Arrived: 26-Oct-20 07:21 PM
Distance/Time
Traveled:
303nm/0:58
Distance/Time
To Go:
Arrived

Flight Plot

Page will automatically refresh every two minutes.

Flight plan parsing failed; only flown route is shown


Map Options




Map Legend


Flown Route
Filed Route
Departure Airport
Arrival Airport
Navaid (VOR, NDB)
Fix

Horizontal Profiles

Position Reports

Time Latitude Longitude Heading Altitude Ground
Speed
26-Oct-20 17:49 39.863577 -104.677366 177 5445ft 0kts
26-Oct-20 17:50 39.863577 -104.677366 177 5445ft 0kts
26-Oct-20 17:51 39.863577 -104.677366 177 5445ft 0kts
26-Oct-20 17:52 39.863577 -104.677366 177 5445ft 0kts
26-Oct-20 17:53 39.863577 -104.677366 177 5445ft 0kts
26-Oct-20 17:54 39.863577 -104.677366 177 5445ft 0kts
26-Oct-20 17:55 39.863577 -104.677366 177 5445ft 0kts
26-Oct-20 17:56 39.863577 -104.677366 177 5445ft 0kts
26-Oct-20 17:57 39.863577 -104.677366 177 5445ft 0kts
26-Oct-20 17:59 39.863577 -104.677366 177 5445ft 0kts
26-Oct-20 18:00 39.863577 -104.677366 177 5445ft 0kts
26-Oct-20 18:01 39.863577 -104.677366 177 5445ft 0kts
26-Oct-20 18:02 39.863577 -104.677366 177 5445ft 0kts
26-Oct-20 18:03 39.863577 -104.677366 177 5445ft 0kts
26-Oct-20 18:04 39.863577 -104.677366 177 5445ft 0kts
26-Oct-20 18:05 39.863577 -104.677366 177 5445ft 0kts
26-Oct-20 18:06 39.863577 -104.677366 177 5445ft 0kts
26-Oct-20 18:07 39.863577 -104.677366 177 5445ft 0kts
26-Oct-20 18:08 39.863577 -104.677366 177 5445ft 0kts
26-Oct-20 18:09 39.863577 -104.677366 177 5445ft 0kts
26-Oct-20 18:10 39.863577 -104.677366 177 5445ft 0kts
26-Oct-20 18:11 39.863577 -104.677366 177 5445ft 0kts
26-Oct-20 18:12 39.863699 -104.677449 140 5445ft 2kts
26-Oct-20 18:13 39.864070 -104.678022 95 5445ft 2kts
26-Oct-20 18:13 39.864074 -104.678111 90 5445ft 0kts
26-Oct-20 18:15 39.864074 -104.678111 90 5445ft 0kts
26-Oct-20 18:16 39.864501 -104.677034 44 5445ft 1kts
26-Oct-20 18:17 39.864732 -104.672689 90 5445ft 20kts
26-Oct-20 18:18 39.865018 -104.664604 90 5445ft 18kts
26-Oct-20 18:18 39.863123 -104.662283 180 5445ft 22kts
26-Oct-20 18:20 39.861060 -104.661764 96 5445ft 0kts
26-Oct-20 18:20 39.861060 -104.661764 96 5445ft 0kts
26-Oct-20 18:22 39.861022 -104.660846 91 5445ft 9kts
26-Oct-20 18:22 39.850866 -104.660293 180 5445ft 140kts
26-Oct-20 18:23 39.802511 -104.661170 178 7553ft 206kts
26-Oct-20 18:24 39.734143 -104.661641 179 9644ft 279kts
26-Oct-20 18:25 39.648242 -104.663723 186 11421ft 345kts
26-Oct-20 18:26 39.549999 -104.689143 192 13999ft 375kts
26-Oct-20 18:27 39.447007 -104.723982 197 16635ft 392kts
26-Oct-20 18:28 39.340048 -104.762474 197 19110ft 407kts
26-Oct-20 18:29 39.229757 -104.801838 198 21439ft 418kts
26-Oct-20 18:30 39.116231 -104.841062 198 23585ft 427kts
26-Oct-20 18:31 39.002487 -104.884560 202 25728ft 428kts
26-Oct-20 18:32 38.891616 -104.927818 203 28505ft 406kts
26-Oct-20 18:33 38.786223 -104.968758 202 30737ft 392kts
26-Oct-20 18:34 38.682858 -105.008595 203 32473ft 387kts
26-Oct-20 18:35 38.580267 -105.047967 203 34065ft 384kts
26-Oct-20 18:36 38.477490 -105.087323 203 35275ft 387kts
26-Oct-20 18:37 38.374104 -105.126809 202 36168ft 394kts
26-Oct-20 18:38 38.269097 -105.166770 202 36180ft 386kts
26-Oct-20 18:39 38.166391 -105.205770 203 36190ft 390kts
26-Oct-20 18:40 38.062711 -105.245000 203 36157ft 387kts
26-Oct-20 18:41 37.959411 -105.283969 202 36121ft 389kts
26-Oct-20 18:42 37.860300 -105.334501 211 36087ft 382kts
26-Oct-20 18:43 37.765772 -105.395361 212 36059ft 381kts
26-Oct-20 18:44 37.672143 -105.457318 212 36061ft 380kts
26-Oct-20 18:45 37.578611 -105.519391 212 36062ft 381kts
26-Oct-20 18:46 37.485083 -105.581208 212 36058ft 380kts
26-Oct-20 18:47 37.390985 -105.643327 212 36055ft 382kts
26-Oct-20 18:48 37.296909 -105.704991 212 36064ft 383kts
26-Oct-20 18:49 37.203165 -105.766445 212 36061ft 380kts
26-Oct-20 18:50 37.108411 -105.828460 212 35532ft 390kts
26-Oct-20 18:51 37.016057 -105.888606 212 33497ft 364kts
26-Oct-20 18:52 36.928786 -105.945331 212 32235ft 354kts
26-Oct-20 18:53 36.841974 -106.001702 211 31236ft 349kts
26-Oct-20 18:54 36.756587 -106.056996 211 30267ft 345kts
26-Oct-20 18:55 36.671281 -106.110529 206 29280ft 343kts
26-Oct-20 18:56 36.582342 -106.152320 203 28281ft 340kts
26-Oct-20 18:57 36.493881 -106.191845 202 27271ft 337kts
26-Oct-20 18:58 36.406087 -106.230925 202 26249ft 334kts
26-Oct-20 18:59 36.318608 -106.269708 201 25216ft 332kts
26-Oct-20 19:00 36.232057 -106.307777 201 24184ft 329kts
26-Oct-20 19:01 36.146237 -106.345551 200 23143ft 327kts
26-Oct-20 19:02 36.060644 -106.382712 199 22083ft 325kts
26-Oct-20 19:03 35.975988 -106.419238 199 21027ft 323kts
26-Oct-20 19:04 35.892221 -106.455141 198 20136ft 303kts
26-Oct-20 19:05 35.810854 -106.488216 198 20015ft 305kts
26-Oct-20 19:06 35.732808 -106.520003 197 18744ft 308kts
26-Oct-20 19:07 35.653889 -106.552131 197 17511ft 294kts
26-Oct-20 19:08 35.574654 -106.587520 204 15820ft 300kts
26-Oct-20 19:09 35.501651 -106.631122 203 14638ft 277kts
26-Oct-20 19:10 35.433010 -106.667096 200 13457ft 267kts
26-Oct-20 19:11 35.364359 -106.701154 200 12134ft 266kts
26-Oct-20 19:12 35.293681 -106.737819 201 10759ft 279kts
26-Oct-20 19:13 35.225610 -106.779425 204 9669ft 267kts
26-Oct-20 19:14 35.161309 -106.816297 195 9069ft 242kts
26-Oct-20 19:15 35.104148 -106.792514 133 8397ft 221kts
26-Oct-20 19:16 35.066834 -106.744056 129 7444ft 163kts
26-Oct-20 19:17 35.046719 -106.698111 97 6632ft 154kts
26-Oct-20 19:18 35.044491 -106.646514 84 5762ft 148kts
26-Oct-20 19:19 35.044305 -106.602092 90 5326ft 52kts
26-Oct-20 19:20 35.045135 -106.596448 49 5329ft 0kts
26-Oct-20 19:21 35.045289 -106.596330 22 5329ft 5kts
26-Oct-20 19:22 35.045857 -106.597045 271 5329ft 10kts
26-Oct-20 19:23 35.045748 -106.602479 270 5326ft 21kts
26-Oct-20 19:24 35.045800 -106.611237 272 5322ft 33kts
26-Oct-20 19:25 35.046896 -106.614463 338 5320ft 0kts
26-Oct-20 19:26 35.046937 -106.614482 339 5319ft 0kts
26-Oct-20 19:27 35.046937 -106.614482 339 5319ft 0kts

Navigation Log

Ident Type
Flight plan parsing failed, navigation log unavailable